Time;durP1;ratioP1;P1;durP2;ratioP2;P2;SDS_P1;SDS_P2;PMS_P1;PMS_P2;Temp;Humidity;BMP_temperature;BMP_pressure;BME280_temperature;BME280_humidity;BME280_pressure;Samples;Min_cycle;Max_cycle;Signal;HPM_P1;HPM_P2
2022/03/13 00:00:20;;;;;;;2.63;1.40;;;;;;;20.09;32.52;101353.00;7314965;19;129336;-51
2022/03/13 00:02:47;;;;;;;2.50;1.60;;;;;;;20.05;32.25;101351.81;7315331;19;131772;-47
2022/03/13 00:05:17;;;;;;;2.95;1.63;;;;;;;20.03;32.64;101352.06;7313550;19;131315;-47
2022/03/13 00:07:46;;;;;;;3.05;1.25;;;;;;;20.03;32.65;101345.66;7313645;19;129431;-52
2022/03/13 00:10:19;;;;;;;1.60;1.10;;;;;;;20.04;32.15;101352.91;7314947;19;129111;-51
2022/03/13 00:12:48;;;;;;;4.50;1.35;;;;;;;20.01;32.42;101342.28;7313422;19;130148;-53
2022/03/13 00:15:21;;;;;;;4.05;1.13;;;;;;;19.99;32.33;101340.59;7309660;19;129489;-53
2022/03/13 00:17:49;;;;;;;4.95;1.38;;;;;;;19.99;32.10;101334.19;7314485;19;128969;-55
2022/03/13 00:20:15;;;;;;;2.88;1.38;;;;;;;19.97;32.04;101331.63;7314043;19;128886;-52
2022/03/13 00:22:42;;;;;;;3.15;1.10;;;;;;;19.94;32.03;101329.34;7313169;19;130487;-53
2022/03/13 00:25:10;;;;;;;3.22;1.23;;;;;;;19.94;32.48;101328.50;7313419;19;129577;-53
2022/03/13 00:27:37;;;;;;;5.47;1.25;;;;;;;19.93;32.25;101319.34;7314439;19;129015;-54
2022/03/13 00:30:05;;;;;;;1.85;1.20;;;;;;;19.93;32.48;101333.22;7314798;19;129235;-52
2022/03/13 00:32:33;;;;;;;5.00;1.38;;;;;;;19.91;32.41;101324.28;7314072;19;130286;-53
2022/03/13 00:34:59;;;;;;;2.53;1.13;;;;;;;19.92;32.46;101326.00;7312377;19;130586;-52
2022/03/13 00:37:26;;;;;;;2.72;1.05;;;;;;;19.91;32.20;101313.19;7312782;19;129727;-49
2022/03/13 00:39:54;;;;;;;8.85;1.20;;;;;;;19.89;32.11;101315.38;7311680;19;128966;-49
2022/03/13 00:42:21;;;;;;;3.55;1.35;;;;;;;19.88;32.43;101313.66;7311739;19;130150;-54
2022/03/13 00:44:49;;;;;;;4.97;1.55;;;;;;;19.87;32.48;101311.16;7312961;19;130145;-52
2022/03/13 00:47:20;;;;;;;3.28;1.13;;;;;;;19.87;32.13;101305.59;7312174;19;129463;-49
2022/03/13 00:49:48;;;;;;;1.67;1.20;;;;;;;19.85;32.24;101314.16;7313806;19;129844;-50
2022/03/13 00:52:15;;;;;;;1.50;1.15;;;;;;;19.85;32.18;101311.38;7312991;19;130492;-50
2022/03/13 00:54:43;;;;;;;4.85;1.40;;;;;;;19.82;32.42;101309.94;7311905;19;130629;-50
2022/03/13 00:57:10;;;;;;;2.80;0.90;;;;;;;19.80;32.18;101298.25;7313095;19;128921;-47
2022/03/13 00:59:37;;;;;;;2.92;1.10;;;;;;;19.79;32.35;101296.53;7312915;19;129587;-52
2022/03/13 01:02:04;;;;;;;2.50;0.95;;;;;;;19.79;32.09;101293.78;7312540;19;130008;-49
2022/03/13 01:04:31;;;;;;;6.47;1.00;;;;;;;19.78;32.42;101285.69;7311906;19;130124;-48
2022/03/13 01:06:58;;;;;;;4.75;1.20;;;;;;;19.78;32.38;101289.31;7311764;19;128817;-53
2022/03/13 01:09:25;;;;;;;5.18;1.10;;;;;;;19.77;32.14;101284.00;7312294;19;128919;-50
2022/03/13 01:11:52;;;;;;;2.25;1.05;;;;;;;19.74;32.32;101285.34;7312392;19;129715;-52
2022/03/13 01:14:20;;;;;;;3.63;1.10;;;;;;;19.72;32.48;101278.34;7311036;19;130187;-54
2022/03/13 01:16:47;;;;;;;2.53;1.23;;;;;;;19.69;32.52;101265.81;7310048;19;129545;-53
2022/03/13 01:19:14;;;;;;;1.90;1.10;;;;;;;19.67;32.08;101268.84;7311961;19;129129;-54
2022/03/13 01:21:42;;;;;;;2.55;1.25;;;;;;;19.67;32.37;101265.19;7310338;19;130461;-49
2022/03/13 01:24:11;;;;;;;2.00;0.85;;;;;;;19.66;32.24;101269.91;7312106;19;130157;-55
2022/03/13 01:26:38;;;;;;;2.47;1.25;;;;;;;19.64;32.15;101263.75;7314674;19;129320;-52
2022/03/13 01:29:11;;;;;;;7.90;1.50;;;;;;;19.63;32.41;101267.63;7319172;19;129346;-54
2022/03/13 01:31:40;;;;;;;3.20;1.00;;;;;;;19.62;32.09;101265.09;7319000;19;131238;-51
2022/03/13 01:34:38;;;;;;;4.93;1.10;;;;;;;19.60;32.57;101268.09;7318404;19;129433;-50
2022/03/13 01:37:08;;;;;;;6.38;1.23;;;;;;;19.61;32.59;101274.53;7317186;19;129020;-52
2022/03/13 01:39:35;;;;;;;2.17;1.00;;;;;;;19.58;32.43;101272.22;7318728;19;129050;-50
2022/03/13 01:42:02;;;;;;;6.68;1.10;;;;;;;19.58;32.17;101264.72;7318816;19;130439;-47
2022/03/13 01:44:29;;;;;;;3.10;1.20;;;;;;;19.57;32.55;101260.25;7317516;19;129836;-50
2022/03/13 01:46:56;;;;;;;3.47;0.80;;;;;;;19.55;32.35;101259.69;7317539;19;130496;-51
2022/03/13 01:49:24;;;;;;;1.48;0.88;;;;;;;19.54;32.38;101263.56;7317714;19;129100;-50
2022/03/13 01:51:51;;;;;;;6.07;1.13;;;;;;;19.53;32.21;101259.09;7317069;19;130223;-50
2022/03/13 01:54:18;;;;;;;7.00;1.13;;;;;;;19.52;32.50;101257.41;7317104;19;129525;-51
2022/03/13 01:56:44;;;;;;;4.47;1.00;;;;;;;19.51;32.16;101253.75;7318222;19;129342;-51
2022/03/13 01:59:14;;;;;;;5.55;1.20;;;;;;;19.50;32.18;101257.66;7317956;19;130050;-54
2022/03/13 02:01:42;;;;;;;4.32;1.05;;;;;;;19.51;32.15;101259.31;7316948;19;130358;-51
2022/03/13 02:04:13;;;;;;;2.65;1.10;;;;;;;19.50;32.21;101254.88;7318436;19;129436;-51
2022/03/13 02:06:40;;;;;;;5.85;1.15;;;;;;;19.50;32.45;101257.66;7314252;19;129672;-51
2022/03/13 02:09:07;;;;;;;2.97;0.93;;;;;;;19.48;32.16;101253.41;7316695;19;128836;-48
2022/03/13 02:11:40;;;;;;;4.95;1.40;;;;;;;19.47;32.12;101252.59;7317070;19;130422;-52
2022/03/13 02:14:11;;;;;;;5.97;1.10;;;;;;;19.47;32.16;101257.28;7316520;19;129417;-49
2022/03/13 02:16:38;;;;;;;3.55;1.10;;;;;;;19.46;32.23;101261.13;7314850;19;129552;-53
2022/03/13 02:19:06;;;;;;;2.92;0.98;;;;;;;19.46;32.28;101258.34;7316638;19;129101;-50
2022/03/13 02:21:39;;;;;;;3.55;1.02;;;;;;;19.46;32.20;101263.91;7316613;19;129427;-51
2022/03/13 02:24:13;;;;;;;6.22;1.13;;;;;;;19.44;32.20;101260.56;7316672;19;129613;-49
2022/03/13 02:26:42;;;;;;;4.43;1.00;;;;;;;19.43;32.04;101256.09;7317747;19;129020;-51
2022/03/13 02:29:15;;;;;;;2.72;1.10;;;;;;;19.43;32.01;101251.38;7316854;19;128867;-54
2022/03/13 02:31:42;;;;;;;3.08;1.00;;;;;;;19.42;31.94;101249.69;7317629;19;129519;-50
2022/03/13 02:34:14;;;;;;;7.95;1.40;;;;;;;19.40;32.01;101246.31;7316740;19;129431;-51
2022/03/13 02:36:43;;;;;;;6.40;1.40;;;;;;;19.41;32.15;101252.72;7313937;19;128932;-52
2022/03/13 02:39:11;;;;;;;7.55;1.30;;;;;;;19.41;31.67;101247.16;7315031;19;129120;-50
2022/03/13 02:41:40;;;;;;;3.10;1.00;;;;;;;19.38;31.71;101252.09;7316899;19;129469;-53
2022/03/13 02:44:09;;;;;;;6.30;0.80;;;;;;;19.39;31.79;101244.63;7316679;19;129467;-49
2022/03/13 02:46:48;;;;;;;4.55;0.98;;;;;;;19.40;31.77;101245.47;7317707;19;129268;-54
2022/03/13 02:49:18;;;;;;;3.45;1.52;;;;;;;19.36;31.76;101237.63;7316243;19;129222;-52
2022/03/13 02:51:47;;;;;;;4.85;1.65;;;;;;;19.37;31.61;101239.31;7316520;19;129612;-50
2022/03/13 02:54:15;;;;;;;5.07;1.02;;;;;;;19.35;31.90;101224.84;7317307;19;129570;-50
2022/03/13 02:56:43;;;;;;;4.07;1.20;;;;;;;19.35;31.85;101227.63;7313794;19;128945;-54
2022/03/13 02:59:12;;;;;;;3.78;0.80;;;;;;;19.35;31.71;101232.34;7316738;19;130952;-49
2022/03/13 03:01:39;;;;;;;5.90;0.90;;;;;;;19.34;32.03;101219.56;7314969;19;130322;-48
2022/03/13 03:04:06;;;;;;;7.10;1.63;;;;;;;19.33;32.10;101221.47;7315907;19;129918;-49
2022/03/13 03:06:34;;;;;;;3.33;1.17;;;;;;;19.32;31.68;101214.22;7313153;19;129516;-50
2022/03/13 03:09:02;;;;;;;2.60;0.93;;;;;;;19.32;32.12;101217.00;7316152;19;129206;-49
2022/03/13 03:11:35;;;;;;;6.70;1.40;;;;;;;19.33;32.02;101213.16;7315029;19;129500;-51
2022/03/13 03:14:03;;;;;;;7.95;1.48;;;;;;;19.30;31.88;101205.34;7314923;19;133634;-54
2022/03/13 03:16:30;;;;;;;2.33;1.13;;;;;;;19.29;31.86;101211.09;7313314;19;129118;-50
2022/03/13 03:18:58;;;;;;;4.90;1.20;;;;;;;19.28;32.17;101204.72;7315232;19;129965;-52
2022/03/13 03:21:26;;;;;;;3.63;1.30;;;;;;;19.27;31.82;101197.50;7315379;19;129513;-51
2022/03/13 03:23:53;;;;;;;6.75;1.30;;;;;;;19.27;31.72;101197.50;7314009;19;129937;-51
2022/03/13 03:26:20;;;;;;;4.07;1.15;;;;;;;19.26;31.94;101195.81;7315077;19;129842;-55
2022/03/13 03:28:47;;;;;;;3.88;1.10;;;;;;;19.24;31.87;101206.28;7314868;19;129147;-54
2022/03/13 03:31:14;;;;;;;2.05;0.90;;;;;;;19.24;31.94;101202.69;7315777;19;130637;-52
2022/03/13 03:33:42;;;;;;;4.35;1.42;;;;;;;19.24;31.64;101203.53;7313624;19;130062;-51
2022/03/13 03:36:15;;;;;;;5.95;0.88;;;;;;;19.25;32.18;101194.13;7313393;19;128963;-52
2022/03/13 03:38:42;;;;;;;5.72;1.13;;;;;;;19.24;31.81;101197.97;7314930;19;129016;-55
2022/03/13 03:41:09;;;;;;;5.35;1.20;;;;;;;19.23;32.15;101201.84;7315143;19;129640;-55
2022/03/13 03:43:35;;;;;;;3.88;1.30;;;;;;;19.22;32.07;101206.56;7315310;19;131453;-50
2022/03/13 03:46:02;;;;;;;4.90;1.20;;;;;;;19.20;32.06;101208.69;7314589;19;129020;-53
2022/03/13 03:48:30;;;;;;;3.05;1.20;;;;;;;19.21;31.90;101209.53;7314219;19;129195;-52
2022/03/13 03:50:58;;;;;;;4.65;1.05;;;;;;;19.21;32.09;101209.53;7314428;19;129901;-55
2022/03/13 03:53:24;;;;;;;2.00;0.98;;;;;;;19.21;32.10;101212.31;7313748;19;129609;-50
2022/03/13 03:55:51;;;;;;;3.20;1.13;;;;;;;19.20;31.69;101207.84;7314373;19;129347;-51
2022/03/13 03:58:21;;;;;;;5.47;1.30;;;;;;;19.19;31.67;101212.53;7314753;19;129458;-55
2022/03/13 04:00:48;;;;;;;2.88;1.10;;;;;;;19.19;31.97;101209.78;7314750;19;129592;-53
2022/03/13 04:03:16;;;;;;;4.00;1.50;;;;;;;19.18;31.72;101215.56;7314487;19;131285;-54
2022/03/13 04:05:43;;;;;;;3.25;0.95;;;;;;;19.17;31.72;101213.88;7312661;19;129368;-54
2022/03/13 04:08:09;;;;;;;2.15;0.90;;;;;;;19.17;32.01;101213.88;7313412;19;128963;-53
2022/03/13 04:10:36;;;;;;;4.05;1.10;;;;;;;19.15;32.01;101211.34;7314532;19;130644;-54
2022/03/13 04:13:03;;;;;;;6.00;1.55;;;;;;;19.16;31.90;101212.19;7314310;19;129939;-50
2022/03/13 04:15:30;;;;;;;2.35;0.80;;;;;;;19.15;32.01;101210.50;7313002;19;129039;-53
2022/03/13 04:17:56;;;;;;;3.25;0.75;;;;;;;19.15;32.15;101207.72;7311390;19;128915;-51
2022/03/13 04:20:24;;;;;;;1.73;0.90;;;;;;;19.15;31.95;101208.56;7313406;19;129609;-56
2022/03/13 04:22:51;;;;;;;4.10;1.20;;;;;;;19.14;31.70;101209.63;7312900;19;130040;-51
2022/03/13 04:25:18;;;;;;;1.50;0.95;;;;;;;19.13;31.93;101207.97;7312998;19;128801;-53
2022/03/13 04:27:45;;;;;;;1.48;0.90;;;;;;;19.14;31.76;101200.50;7311738;19;129250;-53
2022/03/13 04:30:13;;;;;;;2.42;1.10;;;;;;;19.14;31.69;101204.09;7313236;19;130782;-49
2022/03/13 04:32:41;;;;;;;2.25;0.90;;;;;;;19.13;31.70;101205.22;7312642;19;130726;-52
2022/03/13 04:35:08;;;;;;;5.10;1.00;;;;;;;19.13;31.67;101202.44;7313952;19;128977;-51
2022/03/13 04:37:35;;;;;;;1.23;0.95;;;;;;;19.12;32.05;101208.22;7310896;19;130128;-53
2022/03/13 04:40:02;;;;;;;3.50;1.27;;;;;;;19.12;31.70;101202.66;7313269;19;130006;-49
2022/03/13 04:42:29;;;;;;;2.90;0.90;;;;;;;19.11;31.98;101203.75;7313680;19;130512;-53
2022/03/13 04:44:56;;;;;;;1.85;0.80;;;;;;;19.10;31.72;101208.47;7314622;19;128987;-52
2022/03/13 04:47:23;;;;;;;3.75;0.90;;;;;;;19.08;31.99;101200.38;7312426;19;129214;-49
2022/03/13 04:49:49;;;;;;;1.85;0.90;;;;;;;19.08;32.13;101202.31;7313050;19;130472;-52
2022/03/13 04:52:16;;;;;;;3.03;1.25;;;;;;;19.08;31.88;101203.13;7312912;19;129717;-49
2022/03/13 04:54:43;;;;;;;4.63;1.00;;;;;;;19.07;31.96;101203.38;7311949;19;130370;-53
2022/03/13 04:57:09;;;;;;;2.72;0.90;;;;;;;19.06;32.21;101208.09;7311261;19;128901;-52
2022/03/13 04:59:36;;;;;;;3.75;0.90;;;;;;;19.06;31.71;101199.78;7312696;19;130140;-52
2022/03/13 05:02:03;;;;;;;2.53;1.00;;;;;;;19.05;31.77;101198.09;7311998;19;131268;-49
2022/03/13 05:04:31;;;;;;;1.58;0.82;;;;;;;19.05;32.20;101195.31;7311342;19;129394;-53
2022/03/13 05:06:58;;;;;;;2.67;0.95;;;;;;;19.05;31.74;101192.56;7312419;19;128768;-53
2022/03/13 05:09:25;;;;;;;1.60;0.90;;;;;;;19.07;31.85;101192.31;7312366;19;129980;-52
2022/03/13 05:11:53;;;;;;;1.40;0.88;;;;;;;19.12;31.71;101194.34;7311163;19;130881;-52
2022/03/13 05:14:21;;;;;;;1.80;0.90;;;;;;;19.19;31.76;101184.81;7311996;19;128953;-53
2022/03/13 05:16:47;;;;;;;1.25;0.90;;;;;;;19.29;31.78;101178.69;7309159;19;129785;-53
2022/03/13 05:19:14;;;;;;;3.13;0.90;;;;;;;19.44;31.62;101182.88;7312142;19;129613;-51
2022/03/13 05:21:41;;;;;;;2.47;0.90;;;;;;;19.61;31.44;101182.94;7311653;19;129887;-49
2022/03/13 05:24:08;;;;;;;2.25;1.02;;;;;;;19.78;31.55;101183.81;7310697;19;129539;-52
2022/03/13 05:26:35;;;;;;;1.15;0.90;;;;;;;19.98;31.10;101179.75;7311925;19;129868;-50
2022/03/13 05:29:02;;;;;;;1.33;0.90;;;;;;;20.13;30.98;101179.22;7311927;19;130026;-50
2022/03/13 05:31:29;;;;;;;2.65;0.93;;;;;;;20.27;30.89;101174.16;7310902;19;129529;-52
2022/03/13 05:33:56;;;;;;;1.30;0.85;;;;;;;20.38;30.73;101178.78;7311933;19;128822;-50
2022/03/13 05:36:22;;;;;;;1.52;1.10;;;;;;;20.49;30.48;101171.47;7310551;19;129536;-51
2022/03/13 05:38:49;;;;;;;2.97;1.02;;;;;;;20.57;30.41;101171.03;7310843;19;130026;-49
2022/03/13 05:41:17;;;;;;;2.30;1.40;;;;;;;20.63;30.57;101168.38;7311479;19;131049;-50
2022/03/13 05:43:44;;;;;;;3.05;0.90;;;;;;;20.67;30.44;101164.00;7311757;19;129596;-53
2022/03/13 05:46:11;;;;;;;1.33;1.00;;;;;;;20.67;30.04;101159.25;7311278;19;128996;-50
2022/03/13 05:48:38;;;;;;;2.65;0.85;;;;;;;20.66;30.25;101157.56;7310914;19;131043;-52
2022/03/13 05:51:05;;;;;;;1.42;0.90;;;;;;;20.66;30.41;101151.19;7310305;19;131075;-52
2022/03/13 05:53:31;;;;;;;2.97;0.82;;;;;;;20.65;30.43;101155.06;7310573;19;129785;-52
2022/03/13 05:55:58;;;;;;;1.40;0.90;;;;;;;20.62;30.33;101153.59;7310792;19;128973;-54
2022/03/13 05:58:25;;;;;;;2.13;0.88;;;;;;;20.59;30.37;101157.75;7311071;19;131474;-53
2022/03/13 06:01:03;;;;;;;2.33;0.98;;;;;;;20.55;30.48;101156.59;7310350;19;129573;-54
2022/03/13 06:03:30;;;;;;;1.10;0.90;;;;;;;20.52;30.26;101167.34;7310772;19;129208;-49
2022/03/13 06:05:57;;;;;;;1.40;0.80;;;;;;;20.47;30.09;101161.72;7308673;19;129184;-55
2022/03/13 06:08:24;;;;;;;2.63;1.10;;;;;;;20.42;30.54;101154.16;7310702;19;130623;-51
2022/03/13 06:10:51;;;;;;;2.45;0.98;;;;;;;20.38;30.33;101159.34;7310380;19;129475;-52
2022/03/13 06:13:22;;;;;;;2.15;0.98;;;;;;;20.34;30.41;101160.97;7314362;19;129398;-55
2022/03/13 06:15:49;;;;;;;1.48;0.93;;;;;;;20.30;30.26;101168.13;7317198;19;129760;-52
2022/03/13 06:18:16;;;;;;;1.02;0.93;;;;;;;20.26;30.43;101165.00;7315155;19;130462;-53
2022/03/13 06:20:43;;;;;;;1.77;1.00;;;;;;;20.22;30.26;101166.59;7317076;19;130547;-55
2022/03/13 06:23:10;;;;;;;2.45;1.10;;;;;;;20.18;30.42;101168.22;7316320;19;129376;-53
2022/03/13 06:25:37;;;;;;;1.67;0.90;;;;;;;20.15;30.35;101171.47;7317726;19;128958;-53
2022/03/13 06:28:04;;;;;;;1.40;1.00;;;;;;;20.10;30.42;101165.81;7316674;19;129610;-55
2022/03/13 06:30:31;;;;;;;2.47;1.10;;;;;;;20.05;30.86;101162.97;7314307;19;131645;-53
2022/03/13 06:32:57;;;;;;;1.83;1.05;;;;;;;20.02;30.46;101171.78;7317773;19;129386;-55
2022/03/13 06:35:24;;;;;;;1.52;1.10;;;;;;;19.99;30.54;101176.75;7316565;19;130765;-48
2022/03/13 06:37:55;;;;;;;1.58;1.33;;;;;;;20.01;30.58;101172.88;7314287;19;129549;-52
2022/03/13 06:40:24;;;;;;;3.22;1.27;;;;;;;20.03;30.54;101176.25;7316864;19;129582;-52
2022/03/13 06:42:53;;;;;;;1.10;1.00;;;;;;;20.06;30.83;101176.59;7316839;19;128954;-55
2022/03/13 06:45:20;;;;;;;1.20;1.10;;;;;;;20.13;30.42;101173.66;7316471;19;129274;-53
2022/03/13 06:47:49;;;;;;;1.35;1.00;;;;;;;20.22;30.34;101179.66;7316132;19;130144;-54
2022/03/13 06:50:18;;;;;;;1.67;1.00;;;;;;;20.35;30.24;101178.47;7316623;19;129215;-48
2022/03/13 06:52:47;;;;;;;1.10;1.00;;;;;;;20.45;30.37;101175.84;7314969;19;129792;-51
2022/03/13 06:55:14;;;;;;;1.63;1.17;;;;;;;20.58;30.20;101189.41;7315801;19;130101;-53
2022/03/13 06:57:42;;;;;;;2.70;1.20;;;;;;;20.68;29.90;101176.75;7314880;19;129506;-54
2022/03/13 07:00:11;;;;;;;1.05;0.95;;;;;;;20.78;30.17;101190.88;7315691;19;129897;-53
2022/03/13 07:02:37;;;;;;;1.48;1.20;;;;;;;20.86;30.15;101184.88;7315868;19;129513;-53
2022/03/13 07:05:05;;;;;;;2.58;1.23;;;;;;;20.95;30.02;101181.66;7315569;19;129411;-52
2022/03/13 07:07:31;;;;;;;1.40;1.30;;;;;;;20.99;29.56;101180.88;7315518;19;130806;-53
2022/03/13 07:09:58;;;;;;;1.50;1.13;;;;;;;21.02;29.48;101176.75;7313349;19;131184;-53
2022/03/13 07:12:26;;;;;;;1.17;1.08;;;;;;;21.02;29.79;101176.75;7316008;19;129795;-54
2022/03/13 07:14:56;;;;;;;1.40;1.20;;;;;;;21.03;29.65;101178.44;7316225;19;129309;-52
2022/03/13 07:17:24;;;;;;;2.42;1.33;;;;;;;21.01;29.89;101175.06;7313953;19;129671;-53
2022/03/13 07:19:51;;;;;;;1.65;1.33;;;;;;;20.98;29.84;101176.44;7316135;19;130660;-51
2022/03/13 07:22:18;;;;;;;1.67;1.25;;;;;;;20.96;29.88;101178.63;7314610;19;129228;-52
2022/03/13 07:24:46;;;;;;;1.85;1.45;;;;;;;20.90;29.40;101177.72;7313766;19;129202;-54
2022/03/13 07:27:16;;;;;;;1.75;1.30;;;;;;;20.86;29.52;101176.53;7315109;19;130289;-49
2022/03/13 07:29:43;;;;;;;1.63;1.30;;;;;;;20.83;29.76;101176.22;7314981;19;129485;-49
2022/03/13 07:32:10;;;;;;;1.88;1.17;;;;;;;20.80;29.56;101185.06;7315097;19;130125;-52
2022/03/13 07:34:37;;;;;;;1.50;1.35;;;;;;;20.75;29.84;101183.00;7315349;19;128975;-52
2022/03/13 07:37:05;;;;;;;1.40;1.30;;;;;;;20.71;29.84;101188.25;7312532;19;129500;-52
2022/03/13 07:39:32;;;;;;;1.67;1.00;;;;;;;20.67;29.75;101186.22;7315093;19;129866;-54
2022/03/13 07:41:59;;;;;;;2.17;1.20;;;;;;;20.64;30.10;101181.16;7315770;19;129246;-54
2022/03/13 07:44:25;;;;;;;1.65;1.20;;;;;;;20.58;30.00;101181.06;7314393;19;129014;-54
2022/03/13 07:46:52;;;;;;;2.20;1.40;;;;;;;20.55;29.87;101178.81;7312887;19;129998;-47
2022/03/13 07:49:19;;;;;;;3.47;1.73;;;;;;;20.59;30.07;101168.03;7314093;19;131304;-54
2022/03/13 07:51:47;;;;;;;3.90;1.60;;;;;;;20.64;29.77;101175.59;7314901;19;131942;-53
2022/03/13 07:54:14;;;;;;;2.85;1.65;;;;;;;20.65;30.16;101172.56;7314296;19;129656;-53
2022/03/13 07:56:41;;;;;;;3.95;2.33;;;;;;;20.68;30.15;101165.63;7314962;19;130592;-54
2022/03/13 07:59:08;;;;;;;3.40;2.00;;;;;;;20.70;29.67;101167.09;7314845;19;129058;-53
2022/03/13 08:01:35;;;;;;;10.63;1.92;;;;;;;20.73;29.70;101162.94;7313750;19;128827;-55
2022/03/13 08:04:04;;;;;;;4.40;1.98;;;;;;;20.78;29.67;101168.63;7313761;19;129467;-56
2022/03/13 08:06:35;;;;;;;2.50;1.80;;;;;;;20.88;29.60;101171.56;7311328;19;129260;-55
2022/03/13 08:09:04;;;;;;;2.03;1.65;;;;;;;21.11;29.79;101171.59;7312710;19;129543;-57
2022/03/13 08:11:34;;;;;;;5.53;2.22;;;;;;;21.48;29.27;101165.38;7313529;19;129144;-57
2022/03/13 08:14:03;;;;;;;5.55;2.17;;;;;;;22.26;28.72;101172.66;7314010;19;129893;-56
2022/03/13 08:16:30;;;;;;;2.45;1.80;;;;;;;22.99;27.71;101172.09;7311674;19;129913;-54
2022/03/13 08:18:57;;;;;;;2.17;1.98;;;;;;;23.68;26.72;101169.34;7312519;19;130291;-56
2022/03/13 08:21:24;;;;;;;3.90;2.33;;;;;;;24.40;26.47;101168.59;7314357;19;129320;-56
2022/03/13 08:23:51;;;;;;;7.20;2.40;;;;;;;24.97;25.70;101174.97;7313629;19;129961;-57
2022/03/13 08:26:18;;;;;;;4.72;2.13;;;;;;;25.63;24.96;101172.22;7313492;19;131418;-56
2022/03/13 08:28:44;;;;;;;3.03;2.42;;;;;;;26.07;24.47;101165.78;7313314;19;130038;-55
2022/03/13 08:31:12;;;;;;;4.85;2.30;;;;;;;26.29;24.20;101170.13;7313617;19;128865;-54
2022/03/13 08:33:43;;;;;;;3.55;2.25;;;;;;;26.64;23.83;101170.09;7313560;19;129368;-54
2022/03/13 08:36:10;;;;;;;4.32;2.10;;;;;;;26.84;23.89;101171.84;7310828;19;130634;-56
2022/03/13 08:38:37;;;;;;;3.40;2.10;;;;;;;26.90;23.43;101167.03;7310141;19;129981;-57
2022/03/13 08:41:04;;;;;;;4.90;1.90;;;;;;;26.48;24.02;101173.03;7312503;19;131704;-56
2022/03/13 08:43:30;;;;;;;2.65;2.25;;;;;;;25.96;24.19;101164.19;7308119;19;131194;-55
2022/03/13 08:45:59;;;;;;;8.65;2.50;;;;;;;25.54;25.07;101168.34;7310976;19;130250;-57
2022/03/13 08:48:28;;;;;;;7.60;2.28;;;;;;;25.14;25.29;101169.03;7311297;19;132561;-57
2022/03/13 08:50:56;;;;;;;5.43;2.78;;;;;;;24.78;25.77;101173.88;7312961;19;129220;-57
2022/03/13 08:53:23;;;;;;;5.65;2.22;;;;;;;24.48;26.12;101173.66;7309684;19;129416;-57
2022/03/13 08:55:50;;;;;;;4.50;2.53;;;;;;;24.22;26.70;101172.75;7313005;19;130024;-57
2022/03/13 08:58:17;;;;;;;3.40;2.35;;;;;;;24.00;26.75;101161.84;7310835;19;130295;-58
2022/03/13 09:00:44;;;;;;;3.95;2.30;;;;;;;23.80;26.78;101157.91;7312131;19;128868;-55
2022/03/13 09:03:11;;;;;;;4.90;2.28;;;;;;;23.62;26.93;101160.09;7312014;19;129979;-57
2022/03/13 09:05:39;;;;;;;4.43;2.45;;;;;;;23.44;27.51;101154.97;7310497;19;130710;-55
2022/03/13 09:08:05;;;;;;;3.35;2.30;;;;;;;23.31;27.41;101157.16;7311061;19;129496;-57
2022/03/13 09:10:32;;;;;;;8.85;2.65;;;;;;;23.18;27.81;101143.72;7312726;19;129281;-56
2022/03/13 09:12:59;;;;;;;4.13;2.55;;;;;;;23.08;27.37;101154.81;7311325;19;129026;-57
2022/03/13 09:15:26;;;;;;;4.75;3.05;;;;;;;22.97;28.06;101148.34;7311791;19;129681;-57
2022/03/13 09:17:54;;;;;;;5.32;2.60;;;;;;;22.88;27.72;101145.22;7310435;19;129422;-55
2022/03/13 09:20:22;;;;;;;6.53;3.10;;;;;;;22.80;27.89;101149.34;7311125;19;128998;-57
2022/03/13 09:22:49;;;;;;;5.43;2.95;;;;;;;22.74;27.70;101144.84;7312023;19;128984;-56
2022/03/13 09:25:18;;;;;;;6.32;2.95;;;;;;;22.69;28.11;101142.03;7312498;19;130117;-56
2022/03/13 09:27:46;;;;;;;8.52;3.25;;;;;;;22.63;27.99;101143.94;7313065;19;129594;-56
2022/03/13 09:30:13;;;;;;;7.65;3.25;;;;;;;22.59;28.03;101157.56;7311792;19;129393;-57
2022/03/13 09:32:41;;;;;;;5.22;3.00;;;;;;;22.57;28.08;101161.72;7312733;19;129684;-56
2022/03/13 09:35:09;;;;;;;7.20;4.22;;;;;;;22.51;27.50;101154.47;7312710;19;131001;-54
2022/03/13 09:37:37;;;;;;;7.20;5.47;;;;;;;22.46;26.85;101155.25;7310952;19;130179;-57
2022/03/13 09:40:15;;;;;;;9.75;5.55;;;;;;;22.39;26.33;101155.47;7312724;19;129450;-58
2022/03/13 09:42:42;;;;;;;10.00;5.93;;;;;;;22.31;26.34;101153.16;7312503;19;128902;-56
2022/03/13 09:45:11;;;;;;;8.65;5.22;;;;;;;22.22;26.27;101149.19;7312569;19;130985;-56
2022/03/13 09:47:38;;;;;;;6.63;5.45;;;;;;;22.13;26.34;101149.66;7313709;19;129419;-57
2022/03/13 09:50:07;;;;;;;6.68;4.85;;;;;;;22.05;26.38;101144.56;7319801;19;129115;-57
2022/03/13 09:52:37;;;;;;;7.57;5.43;;;;;;;21.94;26.08;101146.41;7317796;19;129931;-57
2022/03/13 09:55:05;;;;;;;9.23;6.22;;;;;;;21.86;26.49;101132.13;7319519;19;131663;-56
2022/03/13 09:57:33;;;;;;;7.35;5.30;;;;;;;21.77;26.56;101138.19;7317535;19;129603;-57
2022/03/13 10:00:00;;;;;;;7.88;4.90;;;;;;;21.71;26.08;101139.22;7318424;19;128771;-57
2022/03/13 10:02:34;;;;;;;7.97;5.60;;;;;;;21.64;26.37;101145.00;7316371;19;128828;-57
2022/03/13 10:05:20;;;;;;;7.72;5.25;;;;;;;21.57;26.86;101149.94;7316714;19;129794;-57
2022/03/13 10:08:02;;;;;;;6.82;5.65;;;;;;;21.49;26.68;101134.53;7317471;19;129737;-57
2022/03/13 10:10:43;;;;;;;5.68;4.90;;;;;;;21.45;26.73;101135.28;7318070;19;129063;-57
2022/03/13 10:13:11;;;;;;;6.28;5.03;;;;;;;21.38;26.62;101135.47;7317592;19;129200;-54
2022/03/13 10:15:48;;;;;;;5.88;5.20;;;;;;;21.32;26.74;101131.81;7315116;19;129618;-57
2022/03/13 10:18:18;;;;;;;6.22;4.75;;;;;;;21.26;26.56;101132.00;7317504;19;130250;-56
2022/03/13 10:20:47;;;;;;;6.25;4.30;;;;;;;21.18;27.02;101116.59;7316992;19;129510;-56
2022/03/13 10:23:19;;;;;;;5.70;4.43;;;;;;;21.14;26.79;101124.63;7315879;19;129011;-55
2022/03/13 10:25:48;;;;;;;4.60;4.20;;;;;;;21.11;26.66;101127.09;7316797;19;129551;-53
2022/03/13 10:28:28;;;;;;;8.35;4.68;;;;;;;21.06;27.17;101136.19;7314840;19;129606;-55
2022/03/13 10:30:58;;;;;;;5.10;4.55;;;;;;;21.02;26.92;101135.03;7317671;19;129871;-56
2022/03/13 10:33:55;;;;;;;7.57;4.18;;;;;;;20.96;26.88;101139.69;7317387;19;130277;-57
2022/03/13 10:36:37;;;;;;;4.15;3.75;;;;;;;20.87;26.81;101130.94;7317129;19;129490;-56
2022/03/13 10:39:16;;;;;;;6.35;3.70;;;;;;;20.81;26.69;101120.84;7314520;19;129733;-56
2022/03/13 10:41:44;;;;;;;4.40;3.75;;;;;;;20.76;27.11;101123.56;7317520;19;129121;-54
2022/03/13 10:44:14;;;;;;;4.20;3.80;;;;;;;20.72;26.71;101120.41;7316659;19;128752;-57
2022/03/13 10:46:42;;;;;;;5.40;3.88;;;;;;;20.69;26.80;101122.84;7317389;19;129708;-56
2022/03/13 10:49:10;;;;;;;3.95;3.30;;;;;;;20.65;27.25;101119.75;7317889;19;129762;-55
2022/03/13 10:51:36;;;;;;;5.65;3.38;;;;;;;20.63;27.24;101121.09;7317168;19;129177;-54
2022/03/13 10:54:04;;;;;;;4.55;3.60;;;;;;;20.60;27.01;101119.69;7315746;19;130021;-57
2022/03/13 10:56:31;;;;;;;4.13;3.35;;;;;;;20.56;26.91;101130.44;7316623;19;129937;-57
2022/03/13 10:59:00;;;;;;;6.65;3.30;;;;;;;20.54;27.10;101116.00;7312264;19;130400;-57
2022/03/13 11:01:30;;;;;;;3.88;3.15;;;;;;;20.51;27.20;101113.72;7315437;19;129999;-56
2022/03/13 11:04:06;;;;;;;4.78;3.10;;;;;;;20.50;26.84;101102.84;7316922;19;129083;-55
2022/03/13 11:06:33;;;;;;;8.50;3.58;;;;;;;20.45;27.08;101101.69;7312731;19;129706;-57
2022/03/13 11:09:01;;;;;;;5.30;3.28;;;;;;;20.43;27.44;101097.47;7314421;19;129899;-56
2022/03/13 11:11:28;;;;;;;5.57;3.42;;;;;;;20.41;27.36;101108.00;7315040;19;129371;-55
2022/03/13 11:13:59;;;;;;;4.30;3.17;;;;;;;20.39;27.43;101099.91;7316180;19;129336;-56
2022/03/13 11:16:30;;;;;;;4.43;3.55;;;;;;;20.39;27.25;101101.84;7314193;19;130515;-56
2022/03/13 11:19:01;;;;;;;4.93;3.00;;;;;;;20.37;27.33;101093.75;7312042;19;130087;-56
2022/03/13 11:21:28;;;;;;;5.40;3.35;;;;;;;20.36;27.02;101085.69;7316054;19;129422;-55